Okemos, Michigan
Current Conditions -  °F | °C
As of 11:02 AM on Saturday 25 Oct 2014 (Local Time) from KLAN Reporting Station
Haze Haze  
Wind Chill: 55°   Ceiling: 900
Heat Index: 55°   Visibility: 2.5mi
Dew Point: 52°   Wind: 16mph
Humidity: 89%   Direction: 280°W
Pressure: 29.84"   Gusts: 24mph
Location:  42.72°N, 84.43°W
Report Text: KLAN 251502Z 28014G21KT 2 1/2SM BR OVC009 13/11 A2984 RMK AO2 CIG 007V013 T01280111
Loading
Personal Weather Stations






























Interactive Weather Map
Tropical Storm Tracking
New forecast layout! Learn more

10-Day Weather Forecast

Advertisements
Track Severe Weather on mobile